sensor_id;sensor_type;location;lat;lon;timestamp;pressure;altitude;pressure_sealevel;temperature;humidity
41596;BME280;27283;52.504;13.358;2023-11-19T00:00:21;101189.34;;;5.66;79.96
41596;BME280;27283;52.504;13.358;2023-11-19T00:03:14;101173.94;;;5.59;79.31
41596;BME280;27283;52.504;13.358;2023-11-19T00:05:48;101169.38;;;5.27;80.11
41596;BME280;27283;52.504;13.358;2023-11-19T00:08:23;101158.56;;;5.40;80.41
41596;BME280;27283;52.504;13.358;2023-11-19T00:10:59;101150.06;;;5.46;80.00
41596;BME280;27283;52.504;13.358;2023-11-19T00:13:33;101139.06;;;5.39;79.25
41596;BME280;27283;52.504;13.358;2023-11-19T00:16:10;101132.47;;;5.43;79.54
41596;BME280;27283;52.504;13.358;2023-11-19T00:18:43;101136.47;;;5.49;79.59
41596;BME280;27283;52.504;13.358;2023-11-19T00:21:18;101130.06;;;5.52;79.13
41596;BME280;27283;52.504;13.358;2023-11-19T00:23:52;101127.28;;;5.53;79.02
41596;BME280;27283;52.504;13.358;2023-11-19T00:26:27;101122.91;;;5.52;78.91
41596;BME280;27283;52.504;13.358;2023-11-19T00:29:01;101116.81;;;5.61;78.67
41596;BME280;27283;52.504;13.358;2023-11-19T00:31:38;101117.81;;;5.60;78.30
41596;BME280;27283;52.504;13.358;2023-11-19T00:34:12;101107.97;;;5.61;78.09
41596;BME280;27283;52.504;13.358;2023-11-19T00:36:46;101103.72;;;5.70;77.43
41596;BME280;27283;52.504;13.358;2023-11-19T00:39:21;101100.88;;;5.82;77.07
41596;BME280;27283;52.504;13.358;2023-11-19T00:41:59;101082.69;;;5.76;76.96
41596;BME280;27283;52.504;13.358;2023-11-19T00:47:37;101069.59;;;5.84;77.06
41596;BME280;27283;52.504;13.358;2023-11-19T00:50:12;101062.81;;;5.80;76.96
41596;BME280;27283;52.504;13.358;2023-11-19T00:52:45;101055.81;;;5.68;76.75
41596;BME280;27283;52.504;13.358;2023-11-19T00:55:19;101051.81;;;5.62;77.11
41596;BME280;27283;52.504;13.358;2023-11-19T00:57:54;101029.84;;;5.70;77.18
41596;BME280;27283;52.504;13.358;2023-11-19T01:00:29;101031.38;;;5.52;77.48
41596;BME280;27283;52.504;13.358;2023-11-19T01:03:08;101021.25;;;5.66;77.27
41596;BME280;27283;52.504;13.358;2023-11-19T01:05:43;101009.13;;;5.74;76.42
41596;BME280;27283;52.504;13.358;2023-11-19T01:08:18;101013.84;;;5.70;76.12
41596;BME280;27283;52.504;13.358;2023-11-19T01:10:52;101006.63;;;5.82;76.26
41596;BME280;27283;52.504;13.358;2023-11-19T01:13:26;100997.19;;;5.78;76.03
41596;BME280;27283;52.504;13.358;2023-11-19T01:16:01;100964.84;;;5.71;76.36
41596;BME280;27283;52.504;13.358;2023-11-19T01:18:40;100958.84;;;5.79;76.11
41596;BME280;27283;52.504;13.358;2023-11-19T01:21:14;100964.19;;;5.79;76.19
41596;BME280;27283;52.504;13.358;2023-11-19T01:23:48;100955.75;;;5.74;76.27
41596;BME280;27283;52.504;13.358;2023-11-19T01:26:22;100947.66;;;5.85;75.26
41596;BME280;27283;52.504;13.358;2023-11-19T01:28:55;100942.91;;;5.89;75.27
41596;BME280;27283;52.504;13.358;2023-11-19T01:31:30;100945.56;;;5.67;76.20
41596;BME280;27283;52.504;13.358;2023-11-19T01:34:06;100941.63;;;5.62;76.28
41596;BME280;27283;52.504;13.358;2023-11-19T01:36:39;100936.84;;;5.65;75.99
41596;BME280;27283;52.504;13.358;2023-11-19T01:39:13;100930.44;;;5.68;76.39
41596;BME280;27283;52.504;13.358;2023-11-19T01:41:47;100905.09;;;5.83;74.87
41596;BME280;27283;52.504;13.358;2023-11-19T01:44:23;100902.28;;;5.85;74.74
41596;BME280;27283;52.504;13.358;2023-11-19T01:46:57;100879.25;;;5.84;75.10
41596;BME280;27283;52.504;13.358;2023-11-19T01:49:35;100874.19;;;5.81;75.09
41596;BME280;27283;52.504;13.358;2023-11-19T01:52:08;100873.88;;;5.74;75.49
41596;BME280;27283;52.504;13.358;2023-11-19T01:54:42;100868.81;;;5.71;76.01
41596;BME280;27283;52.504;13.358;2023-11-19T01:57:15;100863.06;;;5.76;76.38
41596;BME280;27283;52.504;13.358;2023-11-19T01:59:50;100858.09;;;5.92;76.11
41596;BME280;27283;52.504;13.358;2023-11-19T02:02:25;100856.34;;;6.02;76.43
41596;BME280;27283;52.504;13.358;2023-11-19T02:05:02;100852.28;;;5.87;76.75
41596;BME280;27283;52.504;13.358;2023-11-19T02:07:36;100836.41;;;5.85;77.36
41596;BME280;27283;52.504;13.358;2023-11-19T02:10:10;100820.75;;;5.92;77.68
41596;BME280;27283;52.504;13.358;2023-11-19T02:12:47;100797.53;;;5.83;78.19
41596;BME280;27283;52.504;13.358;2023-11-19T02:15:21;100776.59;;;5.78;78.41
41596;BME280;27283;52.504;13.358;2023-11-19T02:17:55;100773.91;;;5.78;78.24
41596;BME280;27283;52.504;13.358;2023-11-19T02:20:33;100763.44;;;5.65;78.44
41596;BME280;27283;52.504;13.358;2023-11-19T02:23:06;100760.16;;;5.52;78.76
41596;BME280;27283;52.504;13.358;2023-11-19T02:25:41;100769.34;;;5.69;78.94
41596;BME280;27283;52.504;13.358;2023-11-19T02:28:18;100765.72;;;5.70;78.67
41596;BME280;27283;52.504;13.358;2023-11-19T02:30:53;100769.09;;;5.72;78.57
41596;BME280;27283;52.504;13.358;2023-11-19T02:33:26;100749.56;;;5.62;78.56
41596;BME280;27283;52.504;13.358;2023-11-19T02:36:00;100746.91;;;5.72;78.53
41596;BME280;27283;52.504;13.358;2023-11-19T02:38:33;100737.81;;;5.84;78.14
41596;BME280;27283;52.504;13.358;2023-11-19T02:41:08;100728.28;;;5.81;77.85
41596;BME280;27283;52.504;13.358;2023-11-19T02:43:44;100727.41;;;5.81;78.61
41596;BME280;27283;52.504;13.358;2023-11-19T02:46:19;100727.41;;;5.71;78.19
41596;BME280;27283;52.504;13.358;2023-11-19T02:48:53;100731.09;;;5.80;78.57
41596;BME280;27283;52.504;13.358;2023-11-19T02:51:28;100726.03;;;5.77;78.70
41596;BME280;27283;52.504;13.358;2023-11-19T02:54:02;100704.63;;;5.67;79.00
41596;BME280;27283;52.504;13.358;2023-11-19T02:56:37;100691.06;;;5.90;78.09
41596;BME280;27283;52.504;13.358;2023-11-19T02:59:13;100677.06;;;5.97;78.02
41596;BME280;27283;52.504;13.358;2023-11-19T03:01:58;100671.97;;;5.84;77.83
41596;BME280;27283;52.504;13.358;2023-11-19T03:04:33;100683.91;;;5.90;78.08
41596;BME280;27283;52.504;13.358;2023-11-19T03:07:06;100666.84;;;6.02;77.83
41596;BME280;27283;52.504;13.358;2023-11-19T03:09:40;100673.63;;;5.85;78.06
41596;BME280;27283;52.504;13.358;2023-11-19T03:12:19;100675.75;;;5.92;78.04
41596;BME280;27283;52.504;13.358;2023-11-19T03:14:56;100682.22;;;5.89;78.45
41596;BME280;27283;52.504;13.358;2023-11-19T03:17:33;100673.56;;;5.97;78.28
41596;BME280;27283;52.504;13.358;2023-11-19T03:20:09;100679.28;;;5.92;78.54
41596;BME280;27283;52.504;13.358;2023-11-19T03:22:47;100675.69;;;6.03;77.79
41596;BME280;27283;52.504;13.358;2023-11-19T03:25:25;100688.59;;;6.17;77.84
41596;BME280;27283;52.504;13.358;2023-11-19T03:28:05;100686.91;;;6.07;77.90
41596;BME280;27283;52.504;13.358;2023-11-19T03:30:46;100676.97;;;6.09;78.41
41596;BME280;27283;52.504;13.358;2023-11-19T03:33:22;100655.72;;;5.97;79.85
41596;BME280;27283;52.504;13.358;2023-11-19T03:35:59;100644.91;;;5.99;81.71
41596;BME280;27283;52.504;13.358;2023-11-19T03:38:49;100630.44;;;6.01;83.49
41596;BME280;27283;52.504;13.358;2023-11-19T03:41:24;100606.38;;;5.82;86.20
41596;BME280;27283;52.504;13.358;2023-11-19T03:44:10;100605.78;;;5.59;88.44
41596;BME280;27283;52.504;13.358;2023-11-19T03:46:49;100598.16;;;5.44;90.52
41596;BME280;27283;52.504;13.358;2023-11-19T03:49:25;100597.75;;;5.49;91.30
41596;BME280;27283;52.504;13.358;2023-11-19T03:52:00;100597.03;;;5.47;91.61
41596;BME280;27283;52.504;13.358;2023-11-19T03:54:58;100589.72;;;5.39;93.46
41596;BME280;27283;52.504;13.358;2023-11-19T03:57:32;100580.50;;;5.12;94.05
41596;BME280;27283;52.504;13.358;2023-11-19T04:00:14;100558.19;;;5.04;96.08
41596;BME280;27283;52.504;13.358;2023-11-19T04:02:51;100547.50;;;5.04;97.08
41596;BME280;27283;52.504;13.358;2023-11-19T04:05:27;100534.03;;;4.95;97.96
41596;BME280;27283;52.504;13.358;2023-11-19T04:08:01;100521.97;;;5.01;98.66
41596;BME280;27283;52.504;13.358;2023-11-19T04:10:36;100516.63;;;5.01;98.50
41596;BME280;27283;52.504;13.358;2023-11-19T04:13:11;100521.78;;;4.83;99.67
41596;BME280;27283;52.504;13.358;2023-11-19T04:15:46;100521.66;;;4.85;100.00
41596;BME280;27283;52.504;13.358;2023-11-19T04:18:23;100510.59;;;4.89;100.00
41596;BME280;27283;52.504;13.358;2023-11-19T04:20:59;100505.97;;;5.01;99.92
41596;BME280;27283;52.504;13.358;2023-11-19T04:23:33;100489.75;;;5.04;99.80
41596;BME280;27283;52.504;13.358;2023-11-19T04:26:06;100492.50;;;4.93;100.00
41596;BME280;27283;52.504;13.358;2023-11-19T04:28:39;100492.00;;;5.09;100.00
41596;BME280;27283;52.504;13.358;2023-11-19T04:31:13;100482.34;;;4.77;100.00
41596;BME280;27283;52.504;13.358;2023-11-19T04:33:49;100492.28;;;5.06;100.00
41596;BME280;27283;52.504;13.358;2023-11-19T04:36:22;100494.06;;;4.95;100.00
41596;BME280;27283;52.504;13.358;2023-11-19T04:38:56;100478.09;;;4.95;100.00
41596;BME280;27283;52.504;13.358;2023-11-19T04:41:30;100498.03;;;5.21;100.00
41596;BME280;27283;52.504;13.358;2023-11-19T04:44:03;100494.94;;;5.15;100.00
41596;BME280;27283;52.504;13.358;2023-11-19T04:46:39;100481.34;;;5.09;100.00
41596;BME280;27283;52.504;13.358;2023-11-19T04:49:20;100490.28;;;4.98;100.00
41596;BME280;27283;52.504;13.358;2023-11-19T04:52:01;100487.19;;;4.93;100.00
41596;BME280;27283;52.504;13.358;2023-11-19T04:54:40;100470.50;;;5.01;100.00
41596;BME280;27283;52.504;13.358;2023-11-19T04:57:15;100460.66;;;4.91;100.00
41596;BME280;27283;52.504;13.358;2023-11-19T04:59:48;100447.63;;;4.88;100.00
41596;BME280;27283;52.504;13.358;2023-11-19T05:02:23;100435.88;;;5.01;100.00
41596;BME280;27283;52.504;13.358;2023-11-19T05:04:59;100440.69;;;5.17;100.00
41596;BME280;27283;52.504;13.358;2023-11-19T05:07:37;100446.28;;;5.13;100.00
41596;BME280;27283;52.504;13.358;2023-11-19T05:10:11;100424.13;;;5.23;100.00
41596;BME280;27283;52.504;13.358;2023-11-19T05:12:45;100426.50;;;5.26;100.00
41596;BME280;27283;52.504;13.358;2023-11-19T05:15:18;100398.31;;;5.33;100.00
41596;BME280;27283;52.504;13.358;2023-11-19T05:17:52;100394.09;;;5.30;100.00
41596;BME280;27283;52.504;13.358;2023-11-19T05:20:29;100392.13;;;5.32;100.00
41596;BME280;27283;52.504;13.358;2023-11-19T05:23:04;100397.16;;;5.16;100.00
41596;BME280;27283;52.504;13.358;2023-11-19T05:25:50;100404.47;;;5.04;100.00
41596;BME280;27283;52.504;13.358;2023-11-19T05:28:24;100393.50;;;4.88;100.00
41596;BME280;27283;52.504;13.358;2023-11-19T05:30:58;100387.72;;;4.83;100.00
41596;BME280;27283;52.504;13.358;2023-11-19T05:33:31;100373.00;;;4.78;100.00
41596;BME280;27283;52.504;13.358;2023-11-19T05:36:11;100368.13;;;4.93;100.00
41596;BME280;27283;52.504;13.358;2023-11-19T05:38:44;100386.50;;;5.06;100.00
41596;BME280;27283;52.504;13.358;2023-11-19T05:41:18;100370.91;;;4.92;100.00
41596;BME280;27283;52.504;13.358;2023-11-19T05:43:52;100358.19;;;4.95;100.00
41596;BME280;27283;52.504;13.358;2023-11-19T05:46:26;100354.25;;;4.90;100.00
41596;BME280;27283;52.504;13.358;2023-11-19T05:49:00;100327.59;;;4.90;100.00
41596;BME280;27283;52.504;13.358;2023-11-19T05:51:39;100331.09;;;4.90;100.00
41596;BME280;27283;52.504;13.358;2023-11-19T05:54:14;100344.41;;;4.90;100.00
41596;BME280;27283;52.504;13.358;2023-11-19T05:56:49;100330.09;;;5.01;100.00
41596;BME280;27283;52.504;13.358;2023-11-19T05:59:25;100328.72;;;4.87;100.00
41596;BME280;27283;52.504;13.358;2023-11-19T06:02:00;100319.03;;;4.96;100.00
41596;BME280;27283;52.504;13.358;2023-11-19T06:04:36;100318.34;;;4.94;100.00
41596;BME280;27283;52.504;13.358;2023-11-19T06:07:13;100316.91;;;5.19;100.00
41596;BME280;27283;52.504;13.358;2023-11-19T06:09:50;100321.22;;;5.49;100.00
41596;BME280;27283;52.504;13.358;2023-11-19T06:12:27;100315.78;;;5.41;100.00
41596;BME280;27283;52.504;13.358;2023-11-19T06:15:19;100304.81;;;5.44;100.00
41596;BME280;27283;52.504;13.358;2023-11-19T06:18:10;100308.47;;;5.43;100.00
41596;BME280;27283;52.504;13.358;2023-11-19T06:21:08;100287.66;;;5.57;100.00
41596;BME280;27283;52.504;13.358;2023-11-19T06:23:47;100286.69;;;5.48;100.00
41596;BME280;27283;52.504;13.358;2023-11-19T06:26:24;100276.56;;;5.71;100.00
41596;BME280;27283;52.504;13.358;2023-11-19T06:28:58;100286.19;;;5.82;100.00
41596;BME280;27283;52.504;13.358;2023-11-19T06:31:36;100285.09;;;5.75;100.00
41596;BME280;27283;52.504;13.358;2023-11-19T06:34:10;100269.56;;;5.60;100.00
41596;BME280;27283;52.504;13.358;2023-11-19T06:36:44;100269.88;;;5.57;100.00
41596;BME280;27283;52.504;13.358;2023-11-19T06:39:20;100267.50;;;5.82;100.00
41596;BME280;27283;52.504;13.358;2023-11-19T06:41:52;100245.56;;;5.60;100.00
41596;BME280;27283;52.504;13.358;2023-11-19T06:44:25;100253.06;;;5.84;100.00
41596;BME280;27283;52.504;13.358;2023-11-19T06:46:58;100256.19;;;6.08;100.00
41596;BME280;27283;52.504;13.358;2023-11-19T06:49:31;100250.16;;;5.96;100.00
41596;BME280;27283;52.504;13.358;2023-11-19T06:52:05;100251.81;;;5.69;100.00
41596;BME280;27283;52.504;13.358;2023-11-19T06:54:41;100251.13;;;5.77;100.00
41596;BME280;27283;52.504;13.358;2023-11-19T06:57:15;100252.97;;;5.66;100.00
41596;BME280;27283;52.504;13.358;2023-11-19T06:59:47;100246.78;;;6.03;100.00
41596;BME280;27283;52.504;13.358;2023-11-19T07:02:20;100248.94;;;6.00;100.00
41596;BME280;27283;52.504;13.358;2023-11-19T07:04:56;100251.88;;;6.25;100.00
41596;BME280;27283;52.504;13.358;2023-11-19T07:07:30;100250.75;;;6.27;100.00
41596;BME280;27283;52.504;13.358;2023-11-19T07:10:08;100262.06;;;6.11;100.00
41596;BME280;27283;52.504;13.358;2023-11-19T07:12:42;100257.31;;;6.33;100.00
41596;BME280;27283;52.504;13.358;2023-11-19T07:15:17;100252.00;;;6.51;99.75
41596;BME280;27283;52.504;13.358;2023-11-19T07:17:56;100266.69;;;6.37;100.00
41596;BME280;27283;52.504;13.358;2023-11-19T07:20:33;100267.53;;;6.37;100.00
41596;BME280;27283;52.504;13.358;2023-11-19T07:23:08;100248.78;;;6.47;100.00
41596;BME280;27283;52.504;13.358;2023-11-19T07:25:49;100258.78;;;6.45;99.96
41596;BME280;27283;52.504;13.358;2023-11-19T07:28:25;100258.16;;;6.33;100.00
41596;BME280;27283;52.504;13.358;2023-11-19T07:30:59;100255.81;;;6.48;100.00
41596;BME280;27283;52.504;13.358;2023-11-19T07:33:33;100244.50;;;6.54;99.97
41596;BME280;27283;52.504;13.358;2023-11-19T07:36:07;100249.38;;;6.59;99.67
41596;BME280;27283;52.504;13.358;2023-11-19T07:38:41;100240.13;;;6.35;100.00
41596;BME280;27283;52.504;13.358;2023-11-19T07:41:17;100233.13;;;6.34;100.00
41596;BME280;27283;52.504;13.358;2023-11-19T07:43:51;100225.50;;;6.39;100.00
41596;BME280;27283;52.504;13.358;2023-11-19T07:46:25;100246.03;;;6.75;100.00
41596;BME280;27283;52.504;13.358;2023-11-19T07:48:59;100241.28;;;6.87;99.94
41596;BME280;27283;52.504;13.358;2023-11-19T07:51:33;100235.50;;;6.73;100.00
41596;BME280;27283;52.504;13.358;2023-11-19T07:54:07;100235.09;;;6.86;99.80
41596;BME280;27283;52.504;13.358;2023-11-19T07:56:42;100235.09;;;6.86;100.00
41596;BME280;27283;52.504;13.358;2023-11-19T07:59:17;100241.81;;;7.08;99.99
41596;BME280;27283;52.504;13.358;2023-11-19T08:01:50;100238.38;;;6.98;99.12
41596;BME280;27283;52.504;13.358;2023-11-19T08:04:25;100246.09;;;6.65;100.00
41596;BME280;27283;52.504;13.358;2023-11-19T08:06:59;100233.16;;;6.70;100.00
41596;BME280;27283;52.504;13.358;2023-11-19T08:09:33;100226.31;;;6.76;100.00
41596;BME280;27283;52.504;13.358;2023-11-19T08:12:10;100225.81;;;6.72;100.00
41596;BME280;27283;52.504;13.358;2023-11-19T08:14:46;100224.28;;;6.70;100.00
41596;BME280;27283;52.504;13.358;2023-11-19T08:17:25;100234.19;;;6.78;100.00
41596;BME280;27283;52.504;13.358;2023-11-19T08:20:08;100225.56;;;6.84;100.00
41596;BME280;27283;52.504;13.358;2023-11-19T08:25:36;100203.00;;;7.04;100.00
41596;BME280;27283;52.504;13.358;2023-11-19T08:28:12;100211.38;;;7.09;100.00
41596;BME280;27283;52.504;13.358;2023-11-19T08:30:46;100226.38;;;7.28;100.00
41596;BME280;27283;52.504;13.358;2023-11-19T08:33:20;100225.00;;;6.98;100.00
41596;BME280;27283;52.504;13.358;2023-11-19T08:35:54;100213.34;;;7.25;100.00
41596;BME280;27283;52.504;13.358;2023-11-19T08:38:28;100202.03;;;7.74;100.00
41596;BME280;27283;52.504;13.358;2023-11-19T08:41:08;100196.41;;;7.86;99.79
41596;BME280;27283;52.504;13.358;2023-11-19T08:43:44;100204.84;;;8.07;98.12
41596;BME280;27283;52.504;13.358;2023-11-19T08:46:19;100205.22;;;8.12;98.00
41596;BME280;27283;52.504;13.358;2023-11-19T08:48:54;100195.34;;;8.29;97.83
41596;BME280;27283;52.504;13.358;2023-11-19T08:51:28;100194.38;;;8.39;97.83
41596;BME280;27283;52.504;13.358;2023-11-19T08:54:07;100193.88;;;8.43;98.09
41596;BME280;27283;52.504;13.358;2023-11-19T08:56:40;100197.94;;;8.56;98.25
41596;BME280;27283;52.504;13.358;2023-11-19T08:59:16;100206.16;;;8.71;97.26
41596;BME280;27283;52.504;13.358;2023-11-19T09:01:51;100205.97;;;8.72;97.04
41596;BME280;27283;52.504;13.358;2023-11-19T09:04:25;100194.91;;;8.50;97.32
41596;BME280;27283;52.504;13.358;2023-11-19T09:06:59;100192.25;;;8.75;97.49
41596;BME280;27283;52.504;13.358;2023-11-19T09:09:33;100202.13;;;8.91;96.94
41596;BME280;27283;52.504;13.358;2023-11-19T09:12:07;100196.59;;;9.01;96.93
41596;BME280;27283;52.504;13.358;2023-11-19T09:14:44;100211.34;;;9.05;96.70
41596;BME280;27283;52.504;13.358;2023-11-19T09:17:20;100202.44;;;9.21;96.94
41596;BME280;27283;52.504;13.358;2023-11-19T09:19:53;100202.09;;;9.16;97.58
41596;BME280;27283;52.504;13.358;2023-11-19T09:22:28;100204.88;;;9.39;96.92
41596;BME280;27283;52.504;13.358;2023-11-19T09:25:01;100208.75;;;9.45;97.22
41596;BME280;27283;52.504;13.358;2023-11-19T09:27:35;100202.00;;;9.57;96.97
41596;BME280;27283;52.504;13.358;2023-11-19T09:30:11;100187.88;;;9.71;97.32
41596;BME280;27283;52.504;13.358;2023-11-19T09:32:46;100197.38;;;9.82;98.07
41596;BME280;27283;52.504;13.358;2023-11-19T09:35:21;100202.44;;;9.77;98.20
41596;BME280;27283;52.504;13.358;2023-11-19T09:37:59;100194.44;;;9.61;99.04
41596;BME280;27283;52.504;13.358;2023-11-19T09:40:34;100179.47;;;9.74;99.80
41596;BME280;27283;52.504;13.358;2023-11-19T09:43:10;100182.09;;;9.83;97.93
41596;BME280;27283;52.504;13.358;2023-11-19T09:45:49;100188.25;;;9.91;98.36
41596;BME280;27283;52.504;13.358;2023-11-19T09:48:25;100199.16;;;9.98;98.08
41596;BME280;27283;52.504;13.358;2023-11-19T09:51:00;100182.63;;;10.09;98.09
41596;BME280;27283;52.504;13.358;2023-11-19T09:53:35;100179.94;;;10.09;99.66
41596;BME280;27283;52.504;13.358;2023-11-19T09:56:09;100178.41;;;10.46;99.25
41596;BME280;27283;52.504;13.358;2023-11-19T09:58:49;100184.06;;;10.52;97.14
41596;BME280;27283;52.504;13.358;2023-11-19T10:01:25;100172.84;;;10.71;97.27
41596;BME280;27283;52.504;13.358;2023-11-19T10:04:02;100181.75;;;11.10;96.61
41596;BME280;27283;52.504;13.358;2023-11-19T10:06:37;100172.63;;;11.11;95.40
41596;BME280;27283;52.504;13.358;2023-11-19T10:09:14;100184.44;;;10.17;99.87
41596;BME280;27283;52.504;13.358;2023-11-19T10:11:49;100181.72;;;10.25;100.00
41596;BME280;27283;52.504;13.358;2023-11-19T10:14:23;100175.97;;;10.98;99.71
41596;BME280;27283;52.504;13.358;2023-11-19T10:17:02;100166.91;;;11.29;96.06
41596;BME280;27283;52.504;13.358;2023-11-19T10:19:37;100169.50;;;11.22;95.62
41596;BME280;27283;52.504;13.358;2023-11-19T10:22:15;100169.19;;;11.17;96.87
41596;BME280;27283;52.504;13.358;2023-11-19T10:24:53;100173.31;;;11.43;95.69
41596;BME280;27283;52.504;13.358;2023-11-19T10:27:27;100165.03;;;11.44;95.63
41596;BME280;27283;52.504;13.358;2023-11-19T10:30:02;100162.63;;;11.64;95.75
41596;BME280;27283;52.504;13.358;2023-11-19T10:32:42;100158.31;;;11.85;96.03
41596;BME280;27283;52.504;13.358;2023-11-19T10:35:14;100157.69;;;11.98;94.96
41596;BME280;27283;52.504;13.358;2023-11-19T10:37:46;100150.28;;;12.21;94.07
41596;BME280;27283;52.504;13.358;2023-11-19T10:40:20;100154.38;;;12.39;94.78
41596;BME280;27283;52.504;13.358;2023-11-19T10:43:02;100153.41;;;12.03;95.78
41596;BME280;27283;52.504;13.358;2023-11-19T10:45:36;100148.34;;;12.15;93.91
41596;BME280;27283;52.504;13.358;2023-11-19T10:48:11;100148.22;;;12.45;93.66
41596;BME280;27283;52.504;13.358;2023-11-19T10:50:44;100137.19;;;12.18;94.40
41596;BME280;27283;52.504;13.358;2023-11-19T10:53:18;100140.19;;;12.52;94.15
41596;BME280;27283;52.504;13.358;2023-11-19T10:55:51;100138.06;;;12.97;93.90
41596;BME280;27283;52.504;13.358;2023-11-19T10:58:25;100130.00;;;13.04;93.15
41596;BME280;27283;52.504;13.358;2023-11-19T11:01:02;100143.72;;;12.31;92.48
41596;BME280;27283;52.504;13.358;2023-11-19T11:03:39;100152.44;;;12.11;93.88
41596;BME280;27283;52.504;13.358;2023-11-19T11:06:15;100143.09;;;12.50;93.13
41596;BME280;27283;52.504;13.358;2023-11-19T11:08:47;100136.31;;;11.81;94.37
41596;BME280;27283;52.504;13.358;2023-11-19T11:11:21;100142.19;;;12.21;94.86
41596;BME280;27283;52.504;13.358;2023-11-19T11:13:55;100149.56;;;12.56;93.26
41596;BME280;27283;52.504;13.358;2023-11-19T11:17:11;100129.22;;;12.32;92.40
41596;BME280;27283;52.504;13.358;2023-11-19T11:19:48;100139.75;;;11.90;93.05
41596;BME280;27283;52.504;13.358;2023-11-19T11:22:22;100142.53;;;11.82;93.16
41596;BME280;27283;52.504;13.358;2023-11-19T11:25:18;100130.50;;;12.14;94.00
41596;BME280;27283;52.504;13.358;2023-11-19T11:28:02;100131.06;;;12.31;91.10
41596;BME280;27283;52.504;13.358;2023-11-19T11:30:48;100134.63;;;11.95;92.55
41596;BME280;27283;52.504;13.358;2023-11-19T11:33:36;100137.56;;;12.37;91.57
41596;BME280;27283;52.504;13.358;2023-11-19T11:36:42;100134.09;;;12.21;91.04
41596;BME280;27283;52.504;13.358;2023-11-19T11:39:21;100134.91;;;12.44;91.68
41596;BME280;27283;52.504;13.358;2023-11-19T11:45:05;100124.81;;;13.02;90.82
41596;BME280;27283;52.504;13.358;2023-11-19T11:48:14;100130.69;;;12.84;90.80
41596;BME280;27283;52.504;13.358;2023-11-19T11:50:54;100132.63;;;12.62;90.11
41596;BME280;27283;52.504;13.358;2023-11-19T11:53:30;100131.69;;;13.05;89.74
41596;BME280;27283;52.504;13.358;2023-11-19T11:56:07;100129.16;;;13.32;89.81
41596;BME280;27283;52.504;13.358;2023-11-19T11:58:40;100123.88;;;13.52;88.51
41596;BME280;27283;52.504;13.358;2023-11-19T12:01:57;100123.72;;;12.97;88.37
41596;BME280;27283;52.504;13.358;2023-11-19T12:04:30;100121.94;;;13.39;87.62
41596;BME280;27283;52.504;13.358;2023-11-19T12:07:04;100132.13;;;12.80;87.73
41596;BME280;27283;52.504;13.358;2023-11-19T12:09:40;100142.28;;;12.78;88.37
41596;BME280;27283;52.504;13.358;2023-11-19T12:12:20;100127.91;;;12.99;88.57
41596;BME280;27283;52.504;13.358;2023-11-19T12:15:06;100131.34;;;12.58;86.85
41596;BME280;27283;52.504;13.358;2023-11-19T12:17:57;100134.03;;;13.15;86.53
41596;BME280;27283;52.504;13.358;2023-11-19T12:20:33;100136.56;;;12.66;86.87
41596;BME280;27283;52.504;13.358;2023-11-19T12:23:09;100137.16;;;12.83;86.80
41596;BME280;27283;52.504;13.358;2023-11-19T12:25:44;100128.06;;;12.19;89.43
41596;BME280;27283;52.504;13.358;2023-11-19T12:28:17;100130.84;;;12.76;88.39
41596;BME280;27283;52.504;13.358;2023-11-19T12:30:50;100128.53;;;13.01;87.29
41596;BME280;27283;52.504;13.358;2023-11-19T12:33:24;100124.69;;;13.45;86.94
41596;BME280;27283;52.504;13.358;2023-11-19T12:35:57;100133.59;;;13.39;86.51
41596;BME280;27283;52.504;13.358;2023-11-19T12:38:34;100122.09;;;13.30;86.45
41596;BME280;27283;52.504;13.358;2023-11-19T12:41:11;100117.03;;;13.21;86.01
41596;BME280;27283;52.504;13.358;2023-11-19T12:43:49;100114.91;;;13.44;85.82
41596;BME280;27283;52.504;13.358;2023-11-19T12:46:24;100117.38;;;12.76;88.08
41596;BME280;27283;52.504;13.358;2023-11-19T12:48:56;100120.41;;;13.29;87.28
41596;BME280;27283;52.504;13.358;2023-11-19T12:51:31;100135.97;;;12.92;87.85
41596;BME280;27283;52.504;13.358;2023-11-19T12:54:04;100135.66;;;12.81;87.59
41596;BME280;27283;52.504;13.358;2023-11-19T12:56:39;100150.91;;;12.45;87.10
41596;BME280;27283;52.504;13.358;2023-11-19T12:59:12;100136.31;;;11.96;89.59
41596;BME280;27283;52.504;13.358;2023-11-19T13:01:54;100128.44;;;12.16;88.14
41596;BME280;27283;52.504;13.358;2023-11-19T13:04:28;100128.84;;;12.56;86.34
41596;BME280;27283;52.504;13.358;2023-11-19T13:07:01;100134.41;;;13.11;84.24
41596;BME280;27283;52.504;13.358;2023-11-19T13:09:35;100138.41;;;13.16;85.24
41596;BME280;27283;52.504;13.358;2023-11-19T13:12:16;100139.16;;;12.74;83.37
41596;BME280;27283;52.504;13.358;2023-11-19T13:14:49;100129.28;;;12.38;85.20
41596;BME280;27283;52.504;13.358;2023-11-19T13:17:23;100124.16;;;12.22;86.33
41596;BME280;27283;52.504;13.358;2023-11-19T13:19:55;100115.78;;;12.88;84.87
41596;BME280;27283;52.504;13.358;2023-11-19T13:22:27;100124.22;;;12.50;84.05
41596;BME280;27283;52.504;13.358;2023-11-19T13:25:00;100123.09;;;12.66;84.42
41596;BME280;27283;52.504;13.358;2023-11-19T13:27:37;100128.72;;;13.00;84.73
41596;BME280;27283;52.504;13.358;2023-11-19T13:30:11;100123.78;;;12.75;84.55
41596;BME280;27283;52.504;13.358;2023-11-19T13:32:46;100124.06;;;12.58;85.03
41596;BME280;27283;52.504;13.358;2023-11-19T13:35:19;100122.47;;;12.92;84.85
41596;BME280;27283;52.504;13.358;2023-11-19T13:37:52;100121.13;;;12.53;86.09
41596;BME280;27283;52.504;13.358;2023-11-19T13:40:24;100124.63;;;13.04;84.46